createdAt,value
2023-07-08T00:01:16.928Z,6.60
2023-07-08T00:03:44.596Z,7.70
2023-07-08T00:06:16.053Z,6.80
2023-07-08T00:08:42.824Z,5.60
2023-07-08T00:11:12.358Z,6.80
2023-07-08T00:13:39.581Z,6.60
2023-07-08T00:16:11.354Z,6.00
2023-07-08T00:18:38.307Z,5.10
2023-07-08T00:21:09.874Z,7.00
2023-07-08T00:23:37.655Z,7.40
2023-07-08T00:26:12.180Z,7.40
2023-07-08T00:28:38.978Z,6.80
2023-07-08T00:31:10.934Z,7.20
2023-07-08T00:33:37.885Z,6.80
2023-07-08T00:36:11.370Z,5.90
2023-07-08T00:38:38.395Z,8.80
2023-07-08T00:41:12.472Z,7.70
2023-07-08T00:43:47.895Z,6.90
2023-07-08T00:46:26.363Z,7.00
2023-07-08T00:48:59.011Z,6.20
2023-07-08T00:51:25.848Z,6.90
2023-07-08T00:53:52.730Z,6.50
2023-07-08T00:56:24.881Z,6.00
2023-07-08T00:59:04.101Z,8.10
2023-07-08T01:01:36.229Z,5.40
2023-07-08T01:04:07.791Z,6.30
2023-07-08T01:06:41.334Z,8.80
2023-07-08T01:09:11.436Z,12.40
2023-07-08T01:11:40.738Z,9.00
2023-07-08T01:14:13.769Z,6.90
2023-07-08T01:16:43.667Z,9.60
2023-07-08T01:19:18.363Z,7.80
2023-07-08T01:22:04.488Z,7.80
2023-07-08T01:24:34.418Z,6.70
2023-07-08T01:27:03.123Z,6.70
2023-07-08T01:29:31.578Z,7.40
2023-07-08T01:31:59.941Z,6.70
2023-07-08T01:34:26.832Z,11.60
2023-07-08T01:36:58.209Z,7.50
2023-07-08T01:39:26.985Z,9.80
2023-07-08T01:41:54.868Z,8.90
2023-07-08T01:44:37.483Z,9.20
2023-07-08T01:47:18.173Z,7.30
2023-07-08T01:49:48.080Z,8.30
2023-07-08T01:52:18.238Z,8.60
2023-07-08T01:54:45.097Z,8.80
2023-07-08T01:57:11.908Z,8.50
2023-07-08T01:59:38.729Z,8.00
2023-07-08T02:02:05.583Z,7.10
2023-07-08T02:04:32.617Z,7.30
2023-07-08T02:07:01.326Z,10.20
2023-07-08T02:09:29.598Z,7.70
2023-07-08T02:11:56.807Z,8.70
2023-07-08T02:14:24.127Z,8.80
2023-07-08T02:16:51.953Z,8.00
2023-07-08T02:19:20.568Z,7.70
2023-07-08T02:21:48.120Z,8.10
2023-07-08T02:24:18.099Z,8.30
2023-07-08T02:26:48.506Z,10.10
2023-07-08T02:29:15.388Z,12.20
2023-07-08T02:31:42.249Z,11.60
2023-07-08T02:34:09.064Z,8.30
2023-07-08T02:36:36.005Z,8.80
2023-07-08T02:39:02.931Z,10.00
2023-07-08T02:41:29.723Z,9.20
2023-07-08T02:43:56.530Z,10.00
2023-07-08T02:46:23.417Z,9.70
2023-07-08T02:48:50.303Z,9.20
2023-07-08T02:51:17.184Z,8.00
2023-07-08T02:53:44.624Z,10.00
2023-07-08T02:56:11.471Z,10.30
2023-07-08T02:58:38.386Z,8.60
2023-07-08T03:01:07.732Z,8.00
2023-07-08T03:03:36.342Z,8.20
2023-07-08T03:06:06.679Z,7.70
2023-07-08T03:08:33.736Z,7.20
2023-07-08T03:11:03.454Z,8.10
2023-07-08T03:13:31.322Z,11.20
2023-07-08T03:16:00.370Z,8.90
2023-07-08T03:18:28.030Z,7.20
2023-07-08T03:20:59.149Z,6.10
2023-07-08T03:23:27.344Z,7.40
2023-07-08T03:25:54.583Z,5.80
2023-07-08T03:28:23.380Z,9.70
2023-07-08T03:30:54.218Z,6.80
2023-07-08T03:33:22.083Z,9.50
2023-07-08T03:35:49.582Z,7.00
2023-07-08T03:38:16.872Z,8.00
2023-07-08T03:40:43.809Z,7.70
2023-07-08T03:43:10.637Z,9.50
2023-07-08T03:45:38.131Z,7.80
2023-07-08T03:48:05.827Z,8.50
2023-07-08T03:50:33.231Z,7.20
2023-07-08T03:53:00.153Z,6.30
2023-07-08T03:55:29.788Z,9.20
2023-07-08T03:57:57.848Z,8.90
2023-07-08T04:00:25.420Z,8.30
2023-07-08T04:02:52.300Z,14.80
2023-07-08T04:05:24.140Z,8.50
2023-07-08T04:07:51.802Z,8.30
2023-07-08T04:10:18.629Z,8.90
2023-07-08T04:12:45.584Z,8.20
2023-07-08T04:15:14.110Z,9.10
2023-07-08T04:17:46.461Z,11.60
2023-07-08T04:20:17.180Z,6.90
2023-07-08T04:22:44.091Z,7.90
2023-07-08T04:25:13.130Z,10.00
2023-07-08T04:27:40.900Z,7.60
2023-07-08T04:30:08.849Z,8.90
2023-07-08T04:32:38.815Z,10.10
2023-07-08T04:35:06.103Z,10.10
2023-07-08T04:37:33.175Z,8.30
2023-07-08T04:40:01.552Z,9.30
2023-07-08T04:42:29.922Z,8.70
2023-07-08T04:44:56.818Z,7.40
2023-07-08T04:47:23.838Z,7.00
2023-07-08T04:49:50.741Z,6.80
2023-07-08T04:52:17.682Z,7.10
2023-07-08T04:54:44.710Z,10.00
2023-07-08T04:57:11.612Z,6.90
2023-07-08T04:59:38.515Z,8.40
2023-07-08T05:02:05.469Z,8.80
2023-07-08T05:04:32.355Z,9.30
2023-07-08T05:06:59.172Z,7.70
2023-07-08T05:09:27.389Z,11.90
2023-07-08T05:11:54.618Z,8.80
2023-07-08T05:14:21.542Z,9.60
2023-07-08T05:16:48.939Z,8.90
2023-07-08T05:19:16.025Z,11.00
2023-07-08T05:21:44.344Z,8.60
2023-07-08T05:24:11.207Z,9.20
2023-07-08T05:26:38.347Z,7.10
2023-07-08T05:29:06.569Z,11.30
2023-07-08T05:31:46.522Z,9.20
2023-07-08T05:34:15.685Z,7.50
2023-07-08T05:36:42.573Z,8.10
2023-07-08T05:39:09.347Z,8.30
2023-07-08T05:41:36.175Z,9.40
2023-07-08T05:44:03.227Z,10.00
2023-07-08T05:46:30.332Z,7.70
2023-07-08T05:48:59.595Z,9.60
2023-07-08T05:51:28.377Z,8.70
2023-07-08T05:53:55.216Z,11.10
2023-07-08T05:56:21.949Z,10.60
2023-07-08T05:58:48.817Z,11.30
2023-07-08T06:01:15.897Z,13.30
2023-07-08T06:03:42.805Z,9.40
2023-07-08T06:06:10.440Z,10.80
2023-07-08T06:08:37.416Z,10.60
2023-07-08T06:11:04.420Z,11.60
2023-07-08T06:13:32.261Z,11.80
2023-07-08T06:15:59.204Z,12.80
2023-07-08T06:18:26.278Z,11.70
2023-07-08T06:20:55.667Z,10.60
2023-07-08T06:23:23.072Z,10.30
2023-07-08T06:25:50.320Z,10.10
2023-07-08T06:28:17.172Z,12.40
2023-07-08T06:30:44.659Z,11.00
2023-07-08T06:33:12.768Z,12.20
2023-07-08T06:35:41.309Z,11.30
2023-07-08T06:38:08.993Z,12.20
2023-07-08T06:40:36.294Z,11.40
2023-07-08T06:43:04.967Z,9.30
2023-07-08T06:45:38.883Z,11.10
2023-07-08T06:48:05.974Z,8.20
2023-07-08T06:50:33.078Z,10.40
2023-07-08T06:52:59.908Z,10.80
2023-07-08T06:55:27.020Z,8.60
2023-07-08T06:57:54.220Z,7.90
2023-07-08T07:00:21.201Z,6.90
2023-07-08T07:02:48.034Z,9.50
2023-07-08T07:05:15.003Z,5.00
2023-07-08T07:07:41.802Z,5.30
2023-07-08T07:10:09.311Z,10.50
2023-07-08T07:12:36.723Z,7.90
2023-07-08T07:15:04.895Z,7.20
2023-07-08T07:17:32.155Z,7.20
2023-07-08T07:19:58.992Z,5.50
2023-07-08T07:22:25.838Z,6.40
2023-07-08T07:24:52.682Z,5.00
2023-07-08T07:27:19.649Z,5.90
2023-07-08T07:29:50.346Z,4.40
2023-07-08T07:32:18.977Z,5.80
2023-07-08T07:34:50.274Z,4.60
2023-07-08T07:37:19.565Z,6.40
2023-07-08T07:39:47.194Z,3.90
2023-07-08T07:42:17.416Z,5.10
2023-07-08T07:44:45.580Z,4.10
2023-07-08T07:47:13.567Z,6.00
2023-07-08T07:49:40.841Z,5.60
2023-07-08T07:52:08.238Z,4.20
2023-07-08T07:54:35.129Z,4.50
2023-07-08T07:57:02.132Z,4.60
2023-07-08T07:59:31.478Z,4.60
2023-07-08T08:01:58.283Z,4.50
2023-07-08T08:04:25.151Z,5.40
2023-07-08T08:06:52.026Z,6.60
2023-07-08T08:09:18.789Z,4.10
2023-07-08T08:11:45.602Z,3.10
2023-07-08T08:14:12.872Z,3.70
2023-07-08T08:16:39.864Z,3.20
2023-07-08T08:19:08.994Z,5.20
2023-07-08T08:21:36.368Z,3.80
2023-07-08T08:24:03.379Z,2.60
2023-07-08T08:26:30.345Z,2.50
2023-07-08T08:28:57.796Z,4.20
2023-07-08T08:31:24.956Z,2.00
2023-07-08T08:33:53.882Z,6.80
2023-07-08T08:36:24.118Z,2.90
2023-07-08T08:38:51.194Z,3.80
2023-07-08T08:41:22.027Z,3.90
2023-07-08T08:43:52.667Z,2.80
2023-07-08T08:46:45.064Z,3.60
2023-07-08T08:49:19.508Z,1.70
2023-07-08T08:51:46.576Z,2.80
2023-07-08T08:54:13.366Z,1.20
2023-07-08T08:56:44.431Z,3.10
2023-07-08T08:59:26.376Z,1.70
2023-07-08T09:01:54.862Z,1.90
2023-07-08T09:04:31.089Z,3.10
2023-07-08T09:07:07.707Z,2.70
2023-07-08T09:09:42.415Z,2.00
2023-07-08T09:12:19.095Z,3.00
2023-07-08T09:14:47.226Z,1.70
2023-07-08T09:17:37.687Z,2.00
2023-07-08T09:20:13.239Z,3.10
2023-07-08T09:22:47.129Z,3.50
2023-07-08T09:25:13.933Z,3.40
2023-07-08T09:27:40.707Z,2.80
2023-07-08T09:30:15.684Z,2.10
2023-07-08T09:32:42.594Z,2.10
2023-07-08T09:35:17.435Z,3.70
2023-07-08T09:37:48.547Z,2.80
2023-07-08T09:40:16.536Z,3.60
2023-07-08T09:42:45.860Z,5.30
2023-07-08T09:45:16.530Z,2.40
2023-07-08T09:47:46.620Z,3.20
2023-07-08T09:50:19.506Z,3.80
2023-07-08T09:52:48.041Z,2.40
2023-07-08T09:55:15.318Z,3.30
2023-07-08T09:57:44.788Z,5.30
2023-07-08T10:00:16.497Z,2.00
2023-07-08T10:02:47.778Z,1.80
2023-07-08T10:05:21.301Z,3.20
2023-07-08T10:07:50.107Z,3.00
2023-07-08T10:10:23.682Z,2.60
2023-07-08T10:12:59.786Z,2.00
2023-07-08T10:15:40.030Z,2.20
2023-07-08T10:18:16.693Z,2.10
2023-07-08T10:20:48.835Z,3.00
2023-07-08T10:23:28.908Z,3.90
2023-07-08T10:26:07.764Z,4.60
2023-07-08T10:28:46.386Z,3.00
2023-07-08T10:31:31.839Z,2.00
2023-07-08T10:33:59.757Z,3.50
2023-07-08T10:36:47.446Z,2.10
2023-07-08T10:39:30.583Z,2.20
2023-07-08T10:44:45.500Z,2.60
2023-07-08T10:47:28.930Z,2.10
2023-07-08T10:50:10.653Z,3.00
2023-07-08T10:52:56.356Z,4.40
2023-07-08T10:55:38.206Z,3.00
2023-07-08T10:58:24.061Z,2.10
2023-07-08T11:01:07.497Z,2.50
2023-07-08T11:04:00.181Z,4.40
2023-07-08T11:06:44.875Z,2.20
2023-07-08T11:09:21.705Z,2.30
2023-07-08T11:12:02.242Z,3.70
2023-07-08T11:14:40.157Z,3.70
2023-07-08T11:17:28.443Z,4.10
2023-07-08T11:20:01.835Z,3.40
2023-07-08T11:22:33.239Z,2.60
2023-07-08T11:25:02.625Z,2.60
2023-07-08T11:27:36.453Z,2.80
2023-07-08T11:30:13.663Z,2.20
2023-07-08T11:32:42.637Z,3.70
2023-07-08T11:35:21.610Z,2.70
2023-07-08T11:37:49.054Z,2.10
2023-07-08T11:40:22.343Z,2.00
2023-07-08T11:42:59.876Z,1.90
2023-07-08T11:45:32.242Z,4.10
2023-07-08T11:48:11.879Z,1.90
2023-07-08T11:50:42.811Z,2.90
2023-07-08T11:53:12.952Z,2.70
2023-07-08T11:55:44.861Z,3.90
2023-07-08T11:58:23.800Z,2.60
2023-07-08T12:01:20.160Z,1.70
2023-07-08T12:03:51.363Z,3.80
2023-07-08T12:06:37.018Z,4.60
2023-07-08T12:09:28.488Z,4.70
2023-07-08T12:12:03.352Z,1.90
2023-07-08T12:14:32.040Z,2.50
2023-07-08T12:16:59.506Z,2.40
2023-07-08T12:19:31.317Z,2.20
2023-07-08T12:21:59.711Z,1.60
2023-07-08T12:24:28.441Z,1.50
2023-07-08T12:26:55.766Z,2.80
2023-07-08T12:29:23.332Z,1.60
2023-07-08T12:31:50.517Z,2.80
2023-07-08T12:34:18.598Z,5.80
2023-07-08T12:36:46.920Z,2.50
2023-07-08T12:39:17.361Z,2.10
2023-07-08T12:41:46.481Z,2.10
2023-07-08T12:44:19.764Z,3.00
2023-07-08T12:46:48.395Z,3.00
2023-07-08T12:49:17.382Z,3.00
2023-07-08T12:51:45.452Z,2.30
2023-07-08T12:54:14.168Z,2.30
2023-07-08T12:56:45.015Z,3.20
2023-07-08T12:59:18.193Z,2.90
2023-07-08T13:01:47.964Z,1.80
2023-07-08T13:04:16.472Z,3.00
2023-07-08T13:06:46.576Z,2.80
2023-07-08T13:09:31.370Z,7.90
2023-07-08T13:14:46.317Z,2.00
2023-07-08T13:17:16.386Z,2.60
2023-07-08T13:19:44.990Z,1.70
2023-07-08T13:22:17.586Z,1.80
2023-07-08T13:24:45.167Z,2.50
2023-07-08T13:27:27.938Z,2.20
2023-07-08T13:29:57.720Z,2.00
2023-07-08T13:32:33.412Z,2.90
2023-07-08T13:35:00.388Z,6.70
2023-07-08T13:37:32.401Z,3.70
2023-07-08T13:39:59.247Z,3.60
2023-07-08T13:42:26.141Z,2.30
2023-07-08T13:44:53.596Z,1.70
2023-07-08T13:47:29.064Z,2.60
2023-07-08T13:50:02.714Z,2.20
2023-07-08T13:52:29.583Z,2.50
2023-07-08T13:55:03.975Z,6.40
2023-07-08T13:58:18.593Z,3.80
2023-07-08T14:00:52.111Z,4.80
2023-07-08T14:03:21.869Z,2.70
2023-07-08T14:05:48.772Z,2.50
2023-07-08T14:08:17.536Z,2.70
2023-07-08T14:10:44.794Z,1.90
2023-07-08T14:13:12.809Z,1.70
2023-07-08T14:15:40.429Z,4.00
2023-07-08T14:18:09.917Z,2.40
2023-07-08T14:20:36.756Z,1.80
2023-07-08T14:23:03.499Z,1.90
2023-07-08T14:25:30.384Z,2.50
2023-07-08T14:27:57.820Z,3.20
2023-07-08T14:30:24.860Z,1.40
2023-07-08T14:32:52.119Z,1.50
2023-07-08T14:35:25.178Z,1.50
2023-07-08T14:37:54.930Z,3.70
2023-07-08T14:40:26.304Z,2.80
2023-07-08T14:42:59.552Z,1.80
2023-07-08T14:45:27.180Z,1.80
2023-07-08T14:47:53.999Z,2.20
2023-07-08T14:50:20.868Z,3.40
2023-07-08T14:52:47.667Z,2.20
2023-07-08T14:55:14.597Z,2.00
2023-07-08T14:57:46.233Z,2.40
2023-07-08T15:00:15.815Z,4.20
2023-07-08T15:02:44.738Z,2.40
2023-07-08T15:05:16.354Z,3.00
2023-07-08T15:07:43.496Z,4.50
2023-07-08T15:10:11.129Z,3.30
2023-07-08T15:12:38.037Z,1.90
2023-07-08T15:15:05.766Z,2.20
2023-07-08T15:17:33.008Z,2.10
2023-07-08T15:20:03.223Z,2.80
2023-07-08T15:22:32.568Z,2.30
2023-07-08T15:25:01.929Z,3.30
2023-07-08T15:27:29.451Z,2.20
2023-07-08T15:29:56.557Z,2.10
2023-07-08T15:32:40.445Z,2.40
2023-07-08T15:35:13.610Z,2.00
2023-07-08T15:37:40.480Z,2.90
2023-07-08T15:40:09.954Z,2.50
2023-07-08T15:42:37.138Z,2.10
2023-07-08T15:45:24.812Z,2.10
2023-07-08T15:47:52.784Z,4.40
2023-07-08T15:50:23.246Z,2.60
2023-07-08T15:52:50.545Z,1.80
2023-07-08T15:55:25.128Z,2.00
2023-07-08T15:57:58.765Z,5.90
2023-07-08T16:00:29.013Z,2.50
2023-07-08T16:03:00.363Z,2.20
2023-07-08T16:05:28.284Z,2.20
2023-07-08T16:07:56.406Z,3.80
2023-07-08T16:10:25.995Z,2.20
2023-07-08T16:12:55.579Z,3.40
2023-07-08T16:15:30.935Z,3.50
2023-07-08T16:17:58.999Z,4.50
2023-07-08T16:20:27.981Z,2.60
2023-07-08T16:22:54.843Z,4.10
2023-07-08T16:25:32.981Z,2.30
2023-07-08T16:28:00.616Z,4.80
2023-07-08T16:30:28.998Z,2.40
2023-07-08T16:32:56.719Z,6.00
2023-07-08T16:35:24.809Z,5.00
2023-07-08T16:37:53.295Z,3.80
2023-07-08T16:40:24.742Z,3.40
2023-07-08T16:42:54.966Z,3.90
2023-07-08T16:45:23.121Z,3.10
2023-07-08T16:47:51.705Z,3.60
2023-07-08T16:50:22.013Z,2.80
2023-07-08T16:52:48.839Z,2.60
2023-07-08T16:55:18.695Z,5.50
2023-07-08T16:57:46.479Z,4.50
2023-07-08T17:00:16.094Z,3.10
2023-07-08T17:02:43.149Z,4.10
2023-07-08T17:05:18.751Z,3.00
2023-07-08T17:07:45.610Z,3.90
2023-07-08T17:10:13.809Z,3.20
2023-07-08T17:12:42.082Z,6.20
2023-07-08T17:15:13.234Z,6.40
2023-07-08T17:17:47.865Z,3.70
2023-07-08T17:20:17.724Z,5.10
2023-07-08T17:22:45.382Z,2.60
2023-07-08T17:25:18.672Z,3.10
2023-07-08T17:27:45.770Z,2.90
2023-07-08T17:30:15.324Z,2.20
2023-07-08T17:32:45.652Z,3.20
2023-07-08T17:35:16.317Z,6.70
2023-07-08T17:37:44.215Z,8.20
2023-07-08T17:40:20.630Z,6.90
2023-07-08T17:42:48.922Z,4.70
2023-07-08T17:45:20.251Z,5.00
2023-07-08T17:47:49.012Z,3.60
2023-07-08T17:50:25.449Z,12.30
2023-07-08T17:52:54.962Z,51.30
2023-07-08T17:55:24.321Z,12.60
2023-07-08T17:57:51.674Z,7.00
2023-07-08T18:00:24.293Z,3.20
2023-07-08T18:02:51.950Z,3.10
2023-07-08T18:05:22.954Z,26.90
2023-07-08T18:07:52.751Z,19.60
2023-07-08T18:10:21.959Z,4.20
2023-07-08T18:12:51.544Z,4.40
2023-07-08T18:15:24.323Z,4.50
2023-07-08T18:17:54.689Z,5.60
2023-07-08T18:20:25.423Z,4.80
2023-07-08T18:22:53.959Z,6.30
2023-07-08T18:25:26.764Z,3.30
2023-07-08T18:27:54.219Z,4.40
2023-07-08T18:30:22.431Z,3.80
2023-07-08T18:32:51.821Z,4.00
2023-07-08T18:35:23.478Z,3.90
2023-07-08T18:37:52.120Z,7.60
2023-07-08T18:40:29.079Z,5.00
2023-07-08T18:43:01.424Z,4.50
2023-07-08T18:45:28.305Z,6.10
2023-07-08T18:47:55.332Z,4.50
2023-07-08T18:50:22.209Z,6.70
2023-07-08T18:52:49.076Z,8.60
2023-07-08T18:55:19.208Z,4.20
2023-07-08T18:57:46.532Z,3.70
2023-07-08T19:00:16.191Z,5.50
2023-07-08T19:02:51.739Z,7.00
2023-07-08T19:05:20.913Z,7.10
2023-07-08T19:07:48.746Z,4.70
2023-07-08T19:10:18.288Z,7.90
2023-07-08T19:12:47.134Z,4.50
2023-07-08T19:15:17.979Z,4.90
2023-07-08T19:17:44.880Z,55.80
2023-07-08T19:20:12.501Z,13.30
2023-07-08T19:22:39.900Z,4.90
2023-07-08T19:25:19.928Z,9.00
2023-07-08T19:27:47.467Z,6.60
2023-07-08T19:30:15.897Z,6.00
2023-07-08T19:32:49.789Z,4.00
2023-07-08T19:35:20.289Z,5.40
2023-07-08T19:37:48.267Z,6.40
2023-07-08T19:40:18.610Z,4.60
2023-07-08T19:42:47.999Z,6.30
2023-07-08T19:45:21.290Z,4.90
2023-07-08T19:47:48.718Z,4.20
2023-07-08T19:50:16.488Z,10.10
2023-07-08T19:52:43.653Z,7.40
2023-07-08T19:55:11.082Z,6.60
2023-07-08T19:57:41.444Z,8.80
2023-07-08T20:00:22.929Z,8.60
2023-07-08T20:02:51.468Z,12.20
2023-07-08T20:05:20.118Z,12.00
2023-07-08T20:07:47.150Z,17.10
2023-07-08T20:10:18.220Z,68.20
2023-07-08T20:12:46.001Z,77.10
2023-07-08T20:15:13.232Z,31.70
2023-07-08T20:17:40.824Z,13.60
2023-07-08T20:20:25.166Z,14.80
2023-07-08T20:22:52.876Z,11.30
2023-07-08T20:25:23.675Z,8.50
2023-07-08T20:27:52.226Z,8.50
2023-07-08T20:30:24.871Z,8.50
2023-07-08T20:32:51.859Z,8.50
2023-07-08T20:35:21.138Z,9.00
2023-07-08T20:37:49.167Z,9.30
2023-07-08T20:40:21.352Z,9.80
2023-07-08T20:42:48.814Z,12.20
2023-07-08T20:45:17.336Z,8.50
2023-07-08T20:47:48.119Z,9.40
2023-07-08T20:50:19.354Z,11.20
2023-07-08T20:52:47.411Z,12.00
2023-07-08T20:55:17.157Z,7.50
2023-07-08T20:57:45.915Z,8.70
2023-07-08T21:00:33.000Z,9.80
2023-07-08T21:03:00.404Z,7.50
2023-07-08T21:05:29.019Z,7.70
2023-07-08T21:07:57.996Z,7.00
2023-07-08T21:10:26.926Z,10.90
2023-07-08T21:12:55.918Z,9.00
2023-07-08T21:15:28.362Z,9.10
2023-07-08T21:17:55.224Z,12.10
2023-07-08T21:20:25.917Z,7.00
2023-07-08T21:22:56.856Z,5.50
2023-07-08T21:25:26.876Z,6.30
2023-07-08T21:27:53.951Z,7.70
2023-07-08T21:30:25.442Z,8.00
2023-07-08T21:32:54.676Z,8.50
2023-07-08T21:35:24.879Z,10.70
2023-07-08T21:37:56.932Z,6.60
2023-07-08T21:40:30.434Z,8.40
2023-07-08T21:42:57.315Z,9.00
2023-07-08T21:45:35.410Z,10.40
2023-07-08T21:48:18.403Z,9.20
2023-07-08T21:50:51.932Z,9.50
2023-07-08T21:53:24.400Z,9.70
2023-07-08T21:55:51.280Z,10.50
2023-07-08T21:58:18.654Z,8.70
2023-07-08T22:00:46.394Z,9.00
2023-07-08T22:03:16.547Z,7.20
2023-07-08T22:05:43.953Z,11.80
2023-07-08T22:08:16.011Z,14.10
2023-07-08T22:10:52.271Z,8.30
2023-07-08T22:13:29.281Z,10.10
2023-07-08T22:15:59.537Z,10.80
2023-07-08T22:18:26.823Z,9.10
2023-07-08T22:20:59.348Z,10.40
2023-07-08T22:23:28.569Z,9.40
2023-07-08T22:25:56.448Z,8.80
2023-07-08T22:28:23.627Z,7.70
2023-07-08T22:30:51.318Z,9.80
2023-07-08T22:33:20.106Z,6.70
2023-07-08T22:35:47.898Z,6.90
2023-07-08T22:38:16.611Z,6.90
2023-07-08T22:40:47.100Z,8.30
2023-07-08T22:43:21.521Z,8.50
2023-07-08T22:45:48.567Z,8.80
2023-07-08T22:48:15.717Z,6.90
2023-07-08T22:50:43.666Z,8.10
2023-07-08T22:53:18.969Z,9.60
2023-07-08T22:55:47.836Z,10.90
2023-07-08T22:58:21.686Z,8.10
2023-07-08T23:03:16.020Z,7.40
2023-07-08T23:05:45.992Z,10.60
2023-07-08T23:08:17.685Z,9.20
2023-07-08T23:10:44.727Z,7.70
2023-07-08T23:13:18.433Z,9.90
2023-07-08T23:15:46.437Z,8.40
2023-07-08T23:18:19.029Z,8.40
2023-07-08T23:20:47.241Z,14.40
2023-07-08T23:23:14.752Z,9.90
2023-07-08T23:25:43.419Z,10.60
2023-07-08T23:28:13.103Z,8.10
2023-07-08T23:30:39.920Z,8.10
2023-07-08T23:33:11.521Z,8.40
2023-07-08T23:35:38.361Z,7.80
2023-07-08T23:38:05.307Z,15.00
2023-07-08T23:40:33.144Z,10.90
2023-07-08T23:42:59.912Z,9.10
2023-07-08T23:45:26.942Z,7.50
2023-07-08T23:47:53.835Z,9.40
2023-07-08T23:50:23.487Z,8.40
2023-07-08T23:52:50.328Z,9.30
2023-07-08T23:55:17.384Z,11.50
2023-07-08T23:57:45.083Z,8.50
